KFAY/FAY METAR and TAF weather

Enter ICAO airport designator
Station Type Date Time Source
KFAY METAR 2023/02/06 19:53 UTC NOAA

KFAY 061953Z 34009G14KT 290V030 10SM CLR 17/01 A3009 RMK AO2 SLP185 T01720006


Station Type Date Time Source
KFAY Decoded METAR 2023/02/06 19:53 UTC NOAA

FAYETTEVILLE REGIONAL AIRPORT , NC, United States (KFAY) 34-59N 078-53W 55M
Feb 06, 2023 - 02:53 PM EST / 2023.02.06 1953 UTC
Wind: from the NNW (340 degrees) at 10 MPH (9 KT) gusting to 16 MPH (14 KT) (direction variable):0
Visibility: 10 mile(s):0
Sky conditions: clear
Temperature: 63.0 F (17.2 C)
Dew Point: 33.1 F (0.6 C)
Relative Humidity: 32%
Pressure (altimeter): 30.09 in. Hg (1018 hPa)
ob: KFAY 061953Z 34009G14KT 290V030 10SM CLR 17/01 A3009 RMK AO2 SLP185 T01720006
cycle: 20

Station Type Date Time Source
KFAY TAF 2023/02/06 18:51 UTC NOAA

TAF KFAY 061720Z 0618/0718 32012G20KT P6SM SKC
FM062230 32006KT P6SM SKC
FM071400 16005KT P6SM SCT250

Example: see airport list